sensor_id;sensor_type;location;lat;lon;timestamp;P1;durP1;ratioP1;P2;durP2;ratioP2
78618;SDS011;67941;52.506;5.470;2023-09-18T00:00:59;5.28;;;2.03;;
78618;SDS011;67941;52.506;5.470;2023-09-18T00:03:28;7.07;;;2.30;;
78618;SDS011;67941;52.506;5.470;2023-09-18T00:05:57;6.10;;;2.20;;
78618;SDS011;67941;52.506;5.470;2023-09-18T00:08:48;5.53;;;1.80;;
78618;SDS011;67941;52.506;5.470;2023-09-18T00:13:46;5.55;;;1.42;;
78618;SDS011;67941;52.506;5.470;2023-09-18T00:16:15;5.25;;;1.90;;
78618;SDS011;67941;52.506;5.470;2023-09-18T00:18:44;5.03;;;1.70;;
78618;SDS011;67941;52.506;5.470;2023-09-18T00:21:13;6.85;;;2.05;;
78618;SDS011;67941;52.506;5.470;2023-09-18T00:23:42;6.07;;;2.60;;
78618;SDS011;67941;52.506;5.470;2023-09-18T00:26:14;5.22;;;1.88;;
78618;SDS011;67941;52.506;5.470;2023-09-18T00:28:46;5.82;;;1.88;;
78618;SDS011;67941;52.506;5.470;2023-09-18T00:31:15;8.18;;;2.78;;
78618;SDS011;67941;52.506;5.470;2023-09-18T00:33:44;6.65;;;2.80;;
78618;SDS011;67941;52.506;5.470;2023-09-18T00:36:13;8.10;;;2.70;;
78618;SDS011;67941;52.506;5.470;2023-09-18T00:38:42;6.22;;;2.53;;
78618;SDS011;67941;52.506;5.470;2023-09-18T00:41:14;6.00;;;2.20;;
78618;SDS011;67941;52.506;5.470;2023-09-18T00:43:43;4.13;;;1.52;;
78618;SDS011;67941;52.506;5.470;2023-09-18T00:46:12;5.80;;;2.35;;
78618;SDS011;67941;52.506;5.470;2023-09-18T00:48:41;4.80;;;1.50;;
78618;SDS011;67941;52.506;5.470;2023-09-18T00:51:10;5.63;;;2.30;;
78618;SDS011;67941;52.506;5.470;2023-09-18T00:53:41;6.80;;;2.30;;
78618;SDS011;67941;52.506;5.470;2023-09-18T00:56:29;6.95;;;2.05;;
78618;SDS011;67941;52.506;5.470;2023-09-18T00:58:59;6.15;;;2.58;;
78618;SDS011;67941;52.506;5.470;2023-09-18T01:01:28;4.43;;;1.42;;
78618;SDS011;67941;52.506;5.470;2023-09-18T01:03:57;7.28;;;2.35;;
78618;SDS011;67941;52.506;5.470;2023-09-18T01:06:27;4.90;;;2.03;;
78618;SDS011;67941;52.506;5.470;2023-09-18T01:08:56;6.07;;;2.05;;
78618;SDS011;67941;52.506;5.470;2023-09-18T01:11:26;6.68;;;2.55;;
78618;SDS011;67941;52.506;5.470;2023-09-18T01:14:06;5.45;;;2.40;;
78618;SDS011;67941;52.506;5.470;2023-09-18T01:16:44;5.07;;;1.95;;
78618;SDS011;67941;52.506;5.470;2023-09-18T01:19:34;4.15;;;1.35;;
78618;SDS011;67941;52.506;5.470;2023-09-18T01:22:04;6.00;;;2.05;;
78618;SDS011;67941;52.506;5.470;2023-09-18T01:24:37;7.40;;;3.28;;
78618;SDS011;67941;52.506;5.470;2023-09-18T01:27:08;6.07;;;2.33;;
78618;SDS011;67941;52.506;5.470;2023-09-18T01:29:38;5.57;;;2.17;;
78618;SDS011;67941;52.506;5.470;2023-09-18T01:32:07;5.85;;;2.00;;
78618;SDS011;67941;52.506;5.470;2023-09-18T01:34:38;7.25;;;2.95;;
78618;SDS011;67941;52.506;5.470;2023-09-18T01:37:09;5.93;;;2.28;;
78618;SDS011;67941;52.506;5.470;2023-09-18T01:39:42;5.43;;;2.50;;
78618;SDS011;67941;52.506;5.470;2023-09-18T01:42:13;7.30;;;3.15;;
78618;SDS011;67941;52.506;5.470;2023-09-18T01:44:43;6.78;;;2.47;;
78618;SDS011;67941;52.506;5.470;2023-09-18T01:47:14;7.35;;;3.20;;
78618;SDS011;67941;52.506;5.470;2023-09-18T01:49:44;5.97;;;2.38;;
78618;SDS011;67941;52.506;5.470;2023-09-18T01:52:14;4.80;;;1.98;;
78618;SDS011;67941;52.506;5.470;2023-09-18T01:54:45;5.60;;;2.65;;
78618;SDS011;67941;52.506;5.470;2023-09-18T01:57:14;5.95;;;2.58;;
78618;SDS011;67941;52.506;5.470;2023-09-18T01:59:43;4.95;;;1.80;;
78618;SDS011;67941;52.506;5.470;2023-09-18T02:02:12;3.75;;;1.23;;
78618;SDS011;67941;52.506;5.470;2023-09-18T02:04:40;5.30;;;1.65;;
78618;SDS011;67941;52.506;5.470;2023-09-18T02:07:10;6.35;;;2.35;;
78618;SDS011;67941;52.506;5.470;2023-09-18T02:09:40;7.55;;;2.63;;
78618;SDS011;67941;52.506;5.470;2023-09-18T02:12:12;6.43;;;2.75;;
78618;SDS011;67941;52.506;5.470;2023-09-18T02:14:43;8.15;;;3.03;;
78618;SDS011;67941;52.506;5.470;2023-09-18T02:17:12;6.43;;;3.33;;
78618;SDS011;67941;52.506;5.470;2023-09-18T02:19:41;6.50;;;2.80;;
78618;SDS011;67941;52.506;5.470;2023-09-18T02:22:10;7.30;;;2.92;;
78618;SDS011;67941;52.506;5.470;2023-09-18T02:24:39;6.50;;;2.10;;
78618;SDS011;67941;52.506;5.470;2023-09-18T02:27:08;6.63;;;3.10;;
78618;SDS011;67941;52.506;5.470;2023-09-18T02:29:40;7.15;;;2.22;;
78618;SDS011;67941;52.506;5.470;2023-09-18T02:32:10;6.70;;;2.13;;
78618;SDS011;67941;52.506;5.470;2023-09-18T02:34:39;6.43;;;2.17;;
78618;SDS011;67941;52.506;5.470;2023-09-18T02:37:07;6.55;;;2.70;;
78618;SDS011;67941;52.506;5.470;2023-09-18T02:39:36;8.65;;;3.47;;
78618;SDS011;67941;52.506;5.470;2023-09-18T02:42:06;8.23;;;2.65;;
78618;SDS011;67941;52.506;5.470;2023-09-18T02:44:35;6.05;;;2.65;;
78618;SDS011;67941;52.506;5.470;2023-09-18T02:47:07;7.07;;;2.70;;
78618;SDS011;67941;52.506;5.470;2023-09-18T02:49:36;5.55;;;2.17;;
78618;SDS011;67941;52.506;5.470;2023-09-18T02:52:05;5.55;;;2.28;;
78618;SDS011;67941;52.506;5.470;2023-09-18T02:54:34;6.85;;;2.22;;
78618;SDS011;67941;52.506;5.470;2023-09-18T02:57:03;5.57;;;2.03;;
78618;SDS011;67941;52.506;5.470;2023-09-18T02:59:32;6.68;;;2.22;;
78618;SDS011;67941;52.506;5.470;2023-09-18T03:02:01;7.15;;;2.90;;
78618;SDS011;67941;52.506;5.470;2023-09-18T03:04:33;6.60;;;2.75;;
78618;SDS011;67941;52.506;5.470;2023-09-18T03:07:03;6.38;;;2.38;;
78618;SDS011;67941;52.506;5.470;2023-09-18T03:09:32;3.72;;;1.40;;
78618;SDS011;67941;52.506;5.470;2023-09-18T03:12:01;5.07;;;1.85;;
78618;SDS011;67941;52.506;5.470;2023-09-18T03:14:30;9.60;;;2.88;;
78618;SDS011;67941;52.506;5.470;2023-09-18T03:16:59;4.78;;;1.60;;
78618;SDS011;67941;52.506;5.470;2023-09-18T03:19:28;5.82;;;2.65;;
78618;SDS011;67941;52.506;5.470;2023-09-18T03:22:00;4.85;;;1.90;;
78618;SDS011;67941;52.506;5.470;2023-09-18T03:24:29;6.43;;;2.67;;
78618;SDS011;67941;52.506;5.470;2023-09-18T03:26:58;7.47;;;2.63;;
78618;SDS011;67941;52.506;5.470;2023-09-18T03:29:27;6.43;;;2.67;;
78618;SDS011;67941;52.506;5.470;2023-09-18T03:31:56;6.32;;;2.28;;
78618;SDS011;67941;52.506;5.470;2023-09-18T03:34:25;5.88;;;1.73;;
78618;SDS011;67941;52.506;5.470;2023-09-18T03:36:54;6.65;;;2.90;;
78618;SDS011;67941;52.506;5.470;2023-09-18T03:39:26;6.93;;;2.97;;
78618;SDS011;67941;52.506;5.470;2023-09-18T03:41:55;8.73;;;2.78;;
78618;SDS011;67941;52.506;5.470;2023-09-18T03:44:24;4.80;;;1.88;;
78618;SDS011;67941;52.506;5.470;2023-09-18T03:46:53;8.32;;;2.58;;
78618;SDS011;67941;52.506;5.470;2023-09-18T03:49:21;8.00;;;2.60;;
78618;SDS011;67941;52.506;5.470;2023-09-18T03:51:51;8.38;;;2.65;;
78618;SDS011;67941;52.506;5.470;2023-09-18T03:54:20;6.28;;;1.95;;
78618;SDS011;67941;52.506;5.470;2023-09-18T03:56:52;4.03;;;1.30;;
78618;SDS011;67941;52.506;5.470;2023-09-18T03:59:21;6.93;;;2.28;;
78618;SDS011;67941;52.506;5.470;2023-09-18T04:02:04;6.43;;;2.22;;
78618;SDS011;67941;52.506;5.470;2023-09-18T04:04:33;6.85;;;2.88;;
78618;SDS011;67941;52.506;5.470;2023-09-18T04:07:05;8.23;;;2.60;;
78618;SDS011;67941;52.506;5.470;2023-09-18T04:09:34;6.80;;;2.45;;
78618;SDS011;67941;52.506;5.470;2023-09-18T04:12:06;5.57;;;2.13;;
78618;SDS011;67941;52.506;5.470;2023-09-18T04:17:04;8.98;;;2.40;;
78618;SDS011;67941;52.506;5.470;2023-09-18T04:19:34;3.47;;;1.35;;
78618;SDS011;67941;52.506;5.470;2023-09-18T04:22:03;7.50;;;2.08;;
78618;SDS011;67941;52.506;5.470;2023-09-18T04:24:32;6.10;;;2.13;;
78618;SDS011;67941;52.506;5.470;2023-09-18T04:27:19;7.18;;;3.13;;
78618;SDS011;67941;52.506;5.470;2023-09-18T04:29:48;8.35;;;2.85;;
78618;SDS011;67941;52.506;5.470;2023-09-18T04:32:17;6.05;;;2.35;;
78618;SDS011;67941;52.506;5.470;2023-09-18T04:34:46;6.80;;;1.95;;
78618;SDS011;67941;52.506;5.470;2023-09-18T04:37:15;7.15;;;2.75;;
78618;SDS011;67941;52.506;5.470;2023-09-18T04:39:44;4.68;;;1.92;;
78618;SDS011;67941;52.506;5.470;2023-09-18T04:42:12;3.75;;;1.55;;
78618;SDS011;67941;52.506;5.470;2023-09-18T04:44:44;6.75;;;2.20;;
78618;SDS011;67941;52.506;5.470;2023-09-18T04:47:14;5.68;;;2.15;;
78618;SDS011;67941;52.506;5.470;2023-09-18T04:49:43;7.32;;;2.40;;
78618;SDS011;67941;52.506;5.470;2023-09-18T04:52:13;5.57;;;2.28;;
78618;SDS011;67941;52.506;5.470;2023-09-18T04:54:42;5.40;;;2.45;;
78618;SDS011;67941;52.506;5.470;2023-09-18T04:57:11;5.80;;;2.22;;
78618;SDS011;67941;52.506;5.470;2023-09-18T04:59:39;5.38;;;2.20;;
78618;SDS011;67941;52.506;5.470;2023-09-18T05:02:11;4.03;;;1.80;;
78618;SDS011;67941;52.506;5.470;2023-09-18T05:04:40;6.35;;;2.60;;
78618;SDS011;67941;52.506;5.470;2023-09-18T05:07:09;7.97;;;2.72;;
78618;SDS011;67941;52.506;5.470;2023-09-18T05:09:38;7.30;;;2.78;;
78618;SDS011;67941;52.506;5.470;2023-09-18T05:12:07;7.20;;;3.05;;
78618;SDS011;67941;52.506;5.470;2023-09-18T05:17:14;6.80;;;2.80;;
78618;SDS011;67941;52.506;5.470;2023-09-18T05:19:44;5.30;;;1.20;;
78618;SDS011;67941;52.506;5.470;2023-09-18T05:22:13;2.45;;;0.90;;
78618;SDS011;67941;52.506;5.470;2023-09-18T05:24:42;3.30;;;0.90;;
78618;SDS011;67941;52.506;5.470;2023-09-18T05:27:11;1.92;;;0.60;;
78618;SDS011;67941;52.506;5.470;2023-09-18T05:29:42;2.05;;;0.70;;
78618;SDS011;67941;52.506;5.470;2023-09-18T05:32:13;1.20;;;0.60;;
78618;SDS011;67941;52.506;5.470;2023-09-18T05:34:42;1.40;;;0.43;;
78618;SDS011;67941;52.506;5.470;2023-09-18T05:37:11;0.98;;;0.40;;
78618;SDS011;67941;52.506;5.470;2023-09-18T05:39:40;1.08;;;0.45;;
78618;SDS011;67941;52.506;5.470;2023-09-18T05:42:09;2.42;;;0.45;;
78618;SDS011;67941;52.506;5.470;2023-09-18T05:44:38;0.95;;;0.30;;
78618;SDS011;67941;52.506;5.470;2023-09-18T05:47:07;0.70;;;0.22;;
78618;SDS011;67941;52.506;5.470;2023-09-18T05:49:38;2.10;;;0.30;;
78618;SDS011;67941;52.506;5.470;2023-09-18T05:52:07;1.35;;;0.32;;
78618;SDS011;67941;52.506;5.470;2023-09-18T05:54:36;3.25;;;0.32;;
78618;SDS011;67941;52.506;5.470;2023-09-18T05:57:17;3.78;;;0.60;;
78618;SDS011;67941;52.506;5.470;2023-09-18T05:59:46;1.70;;;0.65;;
78618;SDS011;67941;52.506;5.470;2023-09-18T06:02:15;1.80;;;0.60;;
78618;SDS011;67941;52.506;5.470;2023-09-18T06:04:48;3.42;;;0.82;;
78618;SDS011;67941;52.506;5.470;2023-09-18T06:07:23;2.75;;;0.75;;
78618;SDS011;67941;52.506;5.470;2023-09-18T06:09:52;2.90;;;1.00;;
78618;SDS011;67941;52.506;5.470;2023-09-18T06:12:21;3.70;;;1.50;;
78618;SDS011;67941;52.506;5.470;2023-09-18T06:14:51;4.95;;;2.25;;
78618;SDS011;67941;52.506;5.470;2023-09-18T06:17:20;4.30;;;1.45;;
78618;SDS011;67941;52.506;5.470;2023-09-18T06:19:52;4.57;;;1.63;;
78618;SDS011;67941;52.506;5.470;2023-09-18T06:22:21;4.65;;;1.30;;
78618;SDS011;67941;52.506;5.470;2023-09-18T06:24:50;3.15;;;1.13;;
78618;SDS011;67941;52.506;5.470;2023-09-18T06:27:18;3.30;;;1.55;;
78618;SDS011;67941;52.506;5.470;2023-09-18T06:29:48;3.58;;;1.45;;
78618;SDS011;67941;52.506;5.470;2023-09-18T06:32:17;2.83;;;1.10;;
78618;SDS011;67941;52.506;5.470;2023-09-18T06:34:47;4.25;;;0.98;;
78618;SDS011;67941;52.506;5.470;2023-09-18T06:37:18;2.67;;;0.85;;
78618;SDS011;67941;52.506;5.470;2023-09-18T06:39:47;3.40;;;1.17;;
78618;SDS011;67941;52.506;5.470;2023-09-18T06:42:16;2.53;;;1.10;;
78618;SDS011;67941;52.506;5.470;2023-09-18T06:44:48;1.83;;;0.52;;
78618;SDS011;67941;52.506;5.470;2023-09-18T06:47:18;1.50;;;0.57;;
78618;SDS011;67941;52.506;5.470;2023-09-18T06:49:49;2.05;;;0.80;;
78618;SDS011;67941;52.506;5.470;2023-09-18T06:52:27;2.00;;;0.70;;
78618;SDS011;67941;52.506;5.470;2023-09-18T06:54:56;3.88;;;0.70;;
78618;SDS011;67941;52.506;5.470;2023-09-18T06:57:25;3.75;;;0.80;;
78618;SDS011;67941;52.506;5.470;2023-09-18T06:59:54;3.53;;;0.63;;
78618;SDS011;67941;52.506;5.470;2023-09-18T07:02:23;1.65;;;0.40;;
78618;SDS011;67941;52.506;5.470;2023-09-18T07:04:52;1.40;;;0.40;;
78618;SDS011;67941;52.506;5.470;2023-09-18T07:07:21;2.85;;;0.63;;
78618;SDS011;67941;52.506;5.470;2023-09-18T07:09:53;2.30;;;0.75;;
78618;SDS011;67941;52.506;5.470;2023-09-18T07:12:22;3.60;;;1.05;;
78618;SDS011;67941;52.506;5.470;2023-09-18T07:14:51;2.05;;;0.90;;
78618;SDS011;67941;52.506;5.470;2023-09-18T07:17:20;1.95;;;1.30;;
78618;SDS011;67941;52.506;5.470;2023-09-18T07:19:49;2.75;;;0.88;;
78618;SDS011;67941;52.506;5.470;2023-09-18T07:22:17;2.78;;;0.85;;
78618;SDS011;67941;52.506;5.470;2023-09-18T07:24:46;1.73;;;0.70;;
78618;SDS011;67941;52.506;5.470;2023-09-18T07:27:18;3.72;;;0.98;;
78618;SDS011;67941;52.506;5.470;2023-09-18T07:29:47;2.55;;;0.77;;
78618;SDS011;67941;52.506;5.470;2023-09-18T07:32:15;2.50;;;0.88;;
78618;SDS011;67941;52.506;5.470;2023-09-18T07:34:45;2.60;;;1.00;;
78618;SDS011;67941;52.506;5.470;2023-09-18T07:37:13;2.72;;;1.02;;
78618;SDS011;67941;52.506;5.470;2023-09-18T07:39:46;3.08;;;1.02;;
78618;SDS011;67941;52.506;5.470;2023-09-18T07:42:15;2.70;;;0.80;;
78618;SDS011;67941;52.506;5.470;2023-09-18T07:44:46;3.17;;;1.15;;
78618;SDS011;67941;52.506;5.470;2023-09-18T07:47:15;3.28;;;1.27;;
78618;SDS011;67941;52.506;5.470;2023-09-18T07:49:44;3.50;;;1.20;;
78618;SDS011;67941;52.506;5.470;2023-09-18T07:52:14;3.10;;;1.00;;
78618;SDS011;67941;52.506;5.470;2023-09-18T07:54:43;3.67;;;1.30;;
78618;SDS011;67941;52.506;5.470;2023-09-18T07:57:12;5.38;;;1.35;;
78618;SDS011;67941;52.506;5.470;2023-09-18T07:59:44;3.05;;;0.93;;
78618;SDS011;67941;52.506;5.470;2023-09-18T08:02:13;2.72;;;1.20;;
78618;SDS011;67941;52.506;5.470;2023-09-18T08:04:42;2.50;;;1.02;;
78618;SDS011;67941;52.506;5.470;2023-09-18T08:07:11;2.83;;;1.70;;
78618;SDS011;67941;52.506;5.470;2023-09-18T08:09:41;4.10;;;1.48;;
78618;SDS011;67941;52.506;5.470;2023-09-18T08:12:13;4.03;;;1.67;;
78618;SDS011;67941;52.506;5.470;2023-09-18T08:14:45;5.03;;;1.42;;
78618;SDS011;67941;52.506;5.470;2023-09-18T08:17:15;3.22;;;1.13;;
78618;SDS011;67941;52.506;5.470;2023-09-18T08:19:45;3.35;;;1.35;;
78618;SDS011;67941;52.506;5.470;2023-09-18T08:22:15;3.45;;;1.73;;
78618;SDS011;67941;52.506;5.470;2023-09-18T08:24:45;4.03;;;1.38;;
78618;SDS011;67941;52.506;5.470;2023-09-18T08:27:15;2.75;;;1.30;;
78618;SDS011;67941;52.506;5.470;2023-09-18T08:29:47;3.78;;;1.52;;
78618;SDS011;67941;52.506;5.470;2023-09-18T08:32:16;2.97;;;1.10;;
78618;SDS011;67941;52.506;5.470;2023-09-18T08:34:45;4.50;;;1.60;;
78618;SDS011;67941;52.506;5.470;2023-09-18T08:37:14;3.47;;;1.30;;
78618;SDS011;67941;52.506;5.470;2023-09-18T08:39:42;4.68;;;1.42;;
78618;SDS011;67941;52.506;5.470;2023-09-18T08:42:11;3.55;;;1.38;;
78618;SDS011;67941;52.506;5.470;2023-09-18T08:44:43;2.95;;;1.35;;
78618;SDS011;67941;52.506;5.470;2023-09-18T08:47:17;3.08;;;1.42;;
78618;SDS011;67941;52.506;5.470;2023-09-18T08:49:47;4.43;;;1.58;;
78618;SDS011;67941;52.506;5.470;2023-09-18T08:52:18;5.00;;;1.63;;
78618;SDS011;67941;52.506;5.470;2023-09-18T08:54:47;4.00;;;1.42;;
78618;SDS011;67941;52.506;5.470;2023-09-18T08:57:17;5.43;;;2.00;;
78618;SDS011;67941;52.506;5.470;2023-09-18T08:59:50;3.90;;;1.52;;
78618;SDS011;67941;52.506;5.470;2023-09-18T09:02:20;4.90;;;1.83;;
78618;SDS011;67941;52.506;5.470;2023-09-18T09:04:49;3.17;;;1.38;;
78618;SDS011;67941;52.506;5.470;2023-09-18T09:07:21;4.72;;;1.30;;
78618;SDS011;67941;52.506;5.470;2023-09-18T09:09:50;3.28;;;1.67;;
78618;SDS011;67941;52.506;5.470;2023-09-18T09:15:22;3.55;;;1.65;;
78618;SDS011;67941;52.506;5.470;2023-09-18T09:18:01;2.47;;;1.17;;
78618;SDS011;67941;52.506;5.470;2023-09-18T09:20:32;3.75;;;1.42;;
78618;SDS011;67941;52.506;5.470;2023-09-18T09:23:02;3.65;;;1.55;;
78618;SDS011;67941;52.506;5.470;2023-09-18T09:25:32;3.15;;;1.40;;
78618;SDS011;67941;52.506;5.470;2023-09-18T09:28:02;5.20;;;1.58;;
78618;SDS011;67941;52.506;5.470;2023-09-18T09:30:35;3.53;;;1.60;;
78618;SDS011;67941;52.506;5.470;2023-09-18T09:33:05;3.42;;;1.33;;
78618;SDS011;67941;52.506;5.470;2023-09-18T09:35:35;3.22;;;1.88;;
78618;SDS011;67941;52.506;5.470;2023-09-18T09:38:07;3.67;;;1.60;;
78618;SDS011;67941;52.506;5.470;2023-09-18T09:40:38;3.42;;;1.40;;
78618;SDS011;67941;52.506;5.470;2023-09-18T09:43:09;3.70;;;1.70;;
78618;SDS011;67941;52.506;5.470;2023-09-18T09:45:44;2.45;;;1.38;;
78618;SDS011;67941;52.506;5.470;2023-09-18T09:48:14;4.07;;;1.58;;
78618;SDS011;67941;52.506;5.470;2023-09-18T09:50:45;3.50;;;1.60;;
78618;SDS011;67941;52.506;5.470;2023-09-18T09:53:16;2.97;;;1.20;;
78618;SDS011;67941;52.506;5.470;2023-09-18T09:55:45;2.85;;;1.33;;
78618;SDS011;67941;52.506;5.470;2023-09-18T09:58:21;1.95;;;1.00;;
78618;SDS011;67941;52.506;5.470;2023-09-18T10:00:59;2.78;;;1.10;;
78618;SDS011;67941;52.506;5.470;2023-09-18T10:06:03;4.25;;;1.20;;
78618;SDS011;67941;52.506;5.470;2023-09-18T10:08:33;3.42;;;1.73;;
78618;SDS011;67941;52.506;5.470;2023-09-18T10:11:05;2.72;;;1.35;;
78618;SDS011;67941;52.506;5.470;2023-09-18T10:13:36;4.50;;;1.90;;
78618;SDS011;67941;52.506;5.470;2023-09-18T10:16:14;3.60;;;1.58;;
78618;SDS011;67941;52.506;5.470;2023-09-18T10:18:49;3.08;;;1.55;;
78618;SDS011;67941;52.506;5.470;2023-09-18T10:21:26;2.95;;;1.23;;
78618;SDS011;67941;52.506;5.470;2023-09-18T10:24:03;3.15;;;2.05;;
78618;SDS011;67941;52.506;5.470;2023-09-18T10:26:41;3.72;;;2.13;;
78618;SDS011;67941;52.506;5.470;2023-09-18T10:29:16;2.75;;;1.50;;
78618;SDS011;67941;52.506;5.470;2023-09-18T10:31:52;3.35;;;1.80;;
78618;SDS011;67941;52.506;5.470;2023-09-18T10:34:22;2.28;;;1.65;;
78618;SDS011;67941;52.506;5.470;2023-09-18T10:36:52;2.15;;;1.10;;
78618;SDS011;67941;52.506;5.470;2023-09-18T10:39:23;2.78;;;1.30;;
78618;SDS011;67941;52.506;5.470;2023-09-18T10:41:53;1.90;;;0.95;;
78618;SDS011;67941;52.506;5.470;2023-09-18T10:44:23;3.13;;;1.35;;
78618;SDS011;67941;52.506;5.470;2023-09-18T10:46:55;3.55;;;1.50;;
78618;SDS011;67941;52.506;5.470;2023-09-18T10:49:25;2.05;;;1.10;;
78618;SDS011;67941;52.506;5.470;2023-09-18T10:51:55;3.53;;;1.60;;
78618;SDS011;67941;52.506;5.470;2023-09-18T10:54:25;2.45;;;1.20;;
78618;SDS011;67941;52.506;5.470;2023-09-18T10:56:55;3.20;;;1.42;;
78618;SDS011;67941;52.506;5.470;2023-09-18T10:59:27;4.35;;;1.27;;
78618;SDS011;67941;52.506;5.470;2023-09-18T11:01:59;2.97;;;1.40;;
78618;SDS011;67941;52.506;5.470;2023-09-18T11:04:31;1.83;;;1.02;;
78618;SDS011;67941;52.506;5.470;2023-09-18T11:07:01;2.10;;;1.00;;
78618;SDS011;67941;52.506;5.470;2023-09-18T11:09:41;2.35;;;0.90;;
78618;SDS011;67941;52.506;5.470;2023-09-18T11:12:11;2.50;;;1.23;;
78618;SDS011;67941;52.506;5.470;2023-09-18T11:14:47;2.25;;;1.10;;
78618;SDS011;67941;52.506;5.470;2023-09-18T11:20:05;2.85;;;1.15;;
78618;SDS011;67941;52.506;5.470;2023-09-18T11:22:46;3.45;;;1.50;;
78618;SDS011;67941;52.506;5.470;2023-09-18T11:25:28;3.25;;;1.40;;
78618;SDS011;67941;52.506;5.470;2023-09-18T11:28:00;2.85;;;1.02;;
78618;SDS011;67941;52.506;5.470;2023-09-18T11:30:31;2.60;;;1.25;;
78618;SDS011;67941;52.506;5.470;2023-09-18T11:33:05;3.13;;;1.40;;
78618;SDS011;67941;52.506;5.470;2023-09-18T11:35:35;2.35;;;1.20;;
78618;SDS011;67941;52.506;5.470;2023-09-18T11:38:05;1.85;;;1.05;;
78618;SDS011;67941;52.506;5.470;2023-09-18T11:40:35;2.58;;;1.40;;
78618;SDS011;67941;52.506;5.470;2023-09-18T11:43:22;3.28;;;1.10;;
78618;SDS011;67941;52.506;5.470;2023-09-18T11:45:55;2.63;;;1.58;;
78618;SDS011;67941;52.506;5.470;2023-09-18T11:48:27;4.78;;;1.45;;
78618;SDS011;67941;52.506;5.470;2023-09-18T11:50:59;2.13;;;1.23;;
78618;SDS011;67941;52.506;5.470;2023-09-18T11:53:33;2.08;;;0.90;;
78618;SDS011;67941;52.506;5.470;2023-09-18T11:56:09;1.65;;;1.00;;
78618;SDS011;67941;52.506;5.470;2023-09-18T11:58:46;2.63;;;1.05;;
78618;SDS011;67941;52.506;5.470;2023-09-18T12:01:15;3.00;;;1.00;;
78618;SDS011;67941;52.506;5.470;2023-09-18T12:03:55;2.95;;;1.35;;
78618;SDS011;67941;52.506;5.470;2023-09-18T12:06:33;2.28;;;1.10;;
78618;SDS011;67941;52.506;5.470;2023-09-18T12:09:02;2.22;;;1.20;;
78618;SDS011;67941;52.506;5.470;2023-09-18T12:11:32;1.65;;;0.93;;
78618;SDS011;67941;52.506;5.470;2023-09-18T12:14:03;2.33;;;1.20;;
78618;SDS011;67941;52.506;5.470;2023-09-18T12:16:37;2.70;;;1.00;;
78618;SDS011;67941;52.506;5.470;2023-09-18T12:19:09;1.95;;;1.25;;
78618;SDS011;67941;52.506;5.470;2023-09-18T12:21:45;5.38;;;1.00;;
78618;SDS011;67941;52.506;5.470;2023-09-18T12:24:15;2.00;;;0.90;;
78618;SDS011;67941;52.506;5.470;2023-09-18T12:26:48;1.60;;;0.90;;
78618;SDS011;67941;52.506;5.470;2023-09-18T12:29:19;2.25;;;1.05;;
78618;SDS011;67941;52.506;5.470;2023-09-18T12:31:48;2.50;;;1.42;;
78618;SDS011;67941;52.506;5.470;2023-09-18T12:34:21;2.22;;;1.20;;
78618;SDS011;67941;52.506;5.470;2023-09-18T12:36:50;2.67;;;1.20;;
78618;SDS011;67941;52.506;5.470;2023-09-18T12:39:20;2.13;;;1.10;;
78618;SDS011;67941;52.506;5.470;2023-09-18T12:41:49;2.45;;;1.58;;
78618;SDS011;67941;52.506;5.470;2023-09-18T12:44:19;2.15;;;1.05;;
78618;SDS011;67941;52.506;5.470;2023-09-18T12:46:48;2.17;;;0.90;;
78618;SDS011;67941;52.506;5.470;2023-09-18T12:49:20;4.40;;;1.15;;
78618;SDS011;67941;52.506;5.470;2023-09-18T12:51:56;2.55;;;1.30;;
78618;SDS011;67941;52.506;5.470;2023-09-18T12:57:06;1.75;;;0.90;;
78618;SDS011;67941;52.506;5.470;2023-09-18T12:59:36;1.92;;;0.90;;
78618;SDS011;67941;52.506;5.470;2023-09-18T13:02:06;2.45;;;0.70;;
78618;SDS011;67941;52.506;5.470;2023-09-18T13:04:38;3.28;;;1.10;;
78618;SDS011;67941;52.506;5.470;2023-09-18T13:07:08;1.90;;;1.00;;
78618;SDS011;67941;52.506;5.470;2023-09-18T13:09:38;2.13;;;0.95;;
78618;SDS011;67941;52.506;5.470;2023-09-18T13:12:08;3.03;;;1.13;;
78618;SDS011;67941;52.506;5.470;2023-09-18T13:17:36;2.88;;;0.80;;
78618;SDS011;67941;52.506;5.470;2023-09-18T13:20:12;1.90;;;1.05;;
78618;SDS011;67941;52.506;5.470;2023-09-18T13:22:42;3.22;;;1.20;;
78618;SDS011;67941;52.506;5.470;2023-09-18T13:25:19;1.60;;;0.95;;
78618;SDS011;67941;52.506;5.470;2023-09-18T13:27:50;1.85;;;0.88;;
78618;SDS011;67941;52.506;5.470;2023-09-18T13:30:20;2.25;;;1.00;;
78618;SDS011;67941;52.506;5.470;2023-09-18T13:32:49;1.50;;;1.08;;
78618;SDS011;67941;52.506;5.470;2023-09-18T13:35:21;4.95;;;1.15;;
78618;SDS011;67941;52.506;5.470;2023-09-18T13:37:50;1.98;;;1.05;;
78618;SDS011;67941;52.506;5.470;2023-09-18T13:40:19;2.03;;;1.05;;
78618;SDS011;67941;52.506;5.470;2023-09-18T13:42:48;2.53;;;1.33;;
78618;SDS011;67941;52.506;5.470;2023-09-18T13:45:17;1.92;;;0.95;;
78618;SDS011;67941;52.506;5.470;2023-09-18T13:47:46;2.35;;;0.90;;
78618;SDS011;67941;52.506;5.470;2023-09-18T13:50:15;2.03;;;0.80;;
78618;SDS011;67941;52.506;5.470;2023-09-18T13:52:47;2.55;;;0.90;;
78618;SDS011;67941;52.506;5.470;2023-09-18T13:55:16;3.78;;;1.20;;
78618;SDS011;67941;52.506;5.470;2023-09-18T13:57:45;4.20;;;0.98;;
78618;SDS011;67941;52.506;5.470;2023-09-18T14:00:14;2.10;;;0.90;;
78618;SDS011;67941;52.506;5.470;2023-09-18T14:02:43;2.30;;;1.40;;
78618;SDS011;67941;52.506;5.470;2023-09-18T14:05:12;2.05;;;0.85;;
78618;SDS011;67941;52.506;5.470;2023-09-18T14:07:42;1.35;;;0.65;;
78618;SDS011;67941;52.506;5.470;2023-09-18T14:10:13;1.52;;;0.73;;
78618;SDS011;67941;52.506;5.470;2023-09-18T14:12:44;1.55;;;0.90;;
78618;SDS011;67941;52.506;5.470;2023-09-18T14:15:13;2.50;;;1.33;;
78618;SDS011;67941;52.506;5.470;2023-09-18T14:17:42;2.35;;;0.98;;
78618;SDS011;67941;52.506;5.470;2023-09-18T14:20:12;3.38;;;1.15;;
78618;SDS011;67941;52.506;5.470;2023-09-18T14:22:43;2.47;;;1.20;;
78618;SDS011;67941;52.506;5.470;2023-09-18T14:25:17;1.52;;;0.95;;
78618;SDS011;67941;52.506;5.470;2023-09-18T14:27:47;2.67;;;1.13;;
78618;SDS011;67941;52.506;5.470;2023-09-18T14:30:16;2.40;;;1.10;;
78618;SDS011;67941;52.506;5.470;2023-09-18T14:32:45;4.03;;;1.58;;
78618;SDS011;67941;52.506;5.470;2023-09-18T14:35:15;2.08;;;1.00;;
78618;SDS011;67941;52.506;5.470;2023-09-18T14:37:44;2.05;;;1.33;;
78618;SDS011;67941;52.506;5.470;2023-09-18T14:40:13;2.53;;;1.75;;
78618;SDS011;67941;52.506;5.470;2023-09-18T14:42:44;2.03;;;1.00;;
78618;SDS011;67941;52.506;5.470;2023-09-18T14:45:13;1.88;;;1.00;;
78618;SDS011;67941;52.506;5.470;2023-09-18T14:47:42;3.47;;;1.20;;
78618;SDS011;67941;52.506;5.470;2023-09-18T14:50:11;2.72;;;1.00;;
78618;SDS011;67941;52.506;5.470;2023-09-18T14:52:40;2.45;;;1.00;;
78618;SDS011;67941;52.506;5.470;2023-09-18T14:55:09;2.47;;;0.70;;
78618;SDS011;67941;52.506;5.470;2023-09-18T14:57:38;2.45;;;1.25;;
78618;SDS011;67941;52.506;5.470;2023-09-18T15:00:10;2.30;;;0.80;;
78618;SDS011;67941;52.506;5.470;2023-09-18T15:02:40;1.45;;;0.93;;
78618;SDS011;67941;52.506;5.470;2023-09-18T15:05:09;1.70;;;0.70;;
78618;SDS011;67941;52.506;5.470;2023-09-18T15:07:40;2.63;;;0.70;;
78618;SDS011;67941;52.506;5.470;2023-09-18T15:10:09;1.25;;;0.70;;
78618;SDS011;67941;52.506;5.470;2023-09-18T15:12:38;2.90;;;0.70;;
78618;SDS011;67941;52.506;5.470;2023-09-18T15:15:11;1.63;;;0.70;;
78618;SDS011;67941;52.506;5.470;2023-09-18T15:17:40;1.85;;;0.85;;
78618;SDS011;67941;52.506;5.470;2023-09-18T15:20:09;1.73;;;0.40;;
78618;SDS011;67941;52.506;5.470;2023-09-18T15:22:38;2.20;;;0.70;;
78618;SDS011;67941;52.506;5.470;2023-09-18T15:25:07;2.05;;;0.50;;
78618;SDS011;67941;52.506;5.470;2023-09-18T15:27:36;3.65;;;1.30;;
78618;SDS011;67941;52.506;5.470;2023-09-18T15:30:06;2.50;;;0.57;;